ADDS METAR Data INFO
IDs: Format: Raw Decoded Include TAF

Data at: 2202 UTC 24 Feb 2018

KFSM 242153Z 26017KT 10SM OVC009 13/11 A2977 RMK AO2 SLP080 T01280111
KFSM 242053Z 26018KT 10SM BKN006 OVC010 12/11 A2974 RMK AO2 PK WND 26027/2037 SLP070 60075 T01220111 53016
KFSM 242032Z 25021KT 10SM BKN008 BKN018 BKN095 14/13 A2972 RMK AO2 PK WND 25027/2027 T01440128
KFSM 242030Z AUTO 25021G27KT 10SM BKN010 BKN018 BKN095 14/13 A2973 RMK AO2 PK WND 25027/2027 LTG DSNT NE T01440128
KFSM 242011Z 23011G18KT 10SM FEW007 SCT049 BKN090 16/14 A2971 RMK AO2 LTG DSNT E-S T01560144
KFSM 241953Z 22008KT 10SM FEW013 BKN046 OVC085 15/14 A2970 RMK AO2 LTG DSNT E AND SE RAE38 TSE09 SLP056 P0015 T01500144
KFSM 241946Z 23005KT 3SM BR FEW013 OVC046 15/14 A2970 RMK AO2 LTG DSNT E AND SE RAE38 TSE09 P0015 T01500144
KFSM 241915Z 33005KT 3SM VCTS +RA BR FEW022 BKN041 OVC049 15/14 A2971 RMK AO2 LTG DSNT ALQDS TSE09 P0011 T01500144
KFSM 241853Z 29010KT 3SM +TSRA BR FEW026 OVC032 15/14 A2972 RMK AO2 PK WND 28035/1824 LTG DSNT ALQDS RAB03 TSB21 SLP063 P0060 T01500144
KFSM 241847Z 31014KT 2SM R25/6000VP6000FT +TSRA BR FEW005 OVC032 14/14 A2969 RMK AO2 PK WND 28035/1824 LTG DSNT ALQDS RAB03 TSB21 P0057
KFSM 241843Z 31012KT 1 3/4SM R25/5500VP6000FT +TSRA BR FEW005 BKN026 OVC043 15/14 A2971 RMK AO2 PK WND 28035/1824 LTG DSNT ALQDS RAB03 TSB21 P0055 T01500144
KFSM 241836Z 30011G14KT 3/4SM R25/1800VP6000FT +TSRA BR FEW008 BKN024 OVC048 14/14 A2973 RMK AO2 PK WND 28035/1824 LTG DSNT ALQDS RAB03 TSB21 P0044 T01440144
KFSM 241829Z 30005G35KT 3/4SM R25/1800VP6000FT +TSRA BR SQ FEW005 BKN032 OVC048 16/15 A2971 RMK AO2 PK WND 28035/1824 VIS 1/4V4 LTG DSNT ALQDS RAB03 TSB21 P0020 T01560150
KFSM 241824Z 29028G35KT 5SM TSRA BR SQ FEW007 BKN049 OVC065 14/14 A2974 RMK AO2 PK WND 28035/1824 LTG DSNT ALQDS RAB03 TSB21 PRESRR P0002 T01440144
KFSM 241821Z 36007KT 320V030 5SM -TSRA BR SCT032 BKN049 OVC075 14/14 A2968 RMK AO2 LTG DSNT ALQDS RAB03 TSB21 P0002 T01440144
KFSM 241753Z 06009KT 10SM FEW004 BKN049 OVC070 14/14 A2969 RMK AO2 LTG DSNT W AND NW RAE09 SLP052 P0000 60020 T01440139 10144 20117 58054
KFSM 241738Z 06005KT 10SM SCT003 BKN055 OVC110 14/14 A2972 RMK AO2 RAE09 P0000 T01390139
KFSM 241653Z 06009KT 7SM -RA OVC004 13/13 A2974 RMK AO2 LTG DSNT SE SLP069 P0009 T01280128
KFSM 241628Z 07008KT 4SM +RA BR BKN005 OVC045 13/13 A2979 RMK AO2 P0006 T01280128
KFSM 241553Z 06006KT 10SM -RA OVC003 13/13 A2982 RMK AO2 SLP097 P0008 T01280128
KFSM 241500Z 09009KT 4SM RA BR BKN002 OVC100 12/12 A2986 RMK AO2 LTG DSNT N P0001 T01220122
KFSM 241453Z 09008KT 1 1/4SM RA BR OVC002 12/12 A2985 RMK AO2 LTG DSNT N RAB34 SLP108 P0001 60003 T01170117 58030
KFSM 241353Z 09004KT 1SM R25/P6000FT BR OVC002 12/12 A2990 RMK AO2 SLP124 T01170117
KFSM 241253Z 05005KT 1SM R25/P6000FT BR OVC003 12/12 A2992 RMK AO2 RAE28 SLP129 P0002 T01170117
KFSM 241153Z 07003KT 2SM -RA BR OVC002 12/12 A2995 RMK AO2 RAB53 SLP139 P0000 60017 70106 T01170117 10128 20117 55004
KFSM 241053Z AUTO 00000KT 2 1/2SM BR OVC002 12/12 A2994 RMK AO2 RAE15 SLP139 P0000 T01170117
KFSM 240953Z AUTO 06004KT 4SM -RA BR OVC003 12/12 A2994 RMK AO2 SLP138 P0003 T01170117
KFSM 240853Z AUTO 02005KT 4SM -RA BR BKN003 OVC010 12/12 A2996 RMK AO2 SLP144 P0005 60014 T01170117 57006
KFSM 240841Z AUTO 35004KT 3SM -RA BR BKN004 BKN010 OVC016 12/12 A2997 RMK AO2 P0003 T01170117
KFSM 240831Z AUTO 02003KT 4SM -RA BR SCT004 BKN008 OVC016 12/12 A2996 RMK AO2 P0003 T01170117
KFSM 240820Z AUTO 02003KT 4SM -RA BR SCT008 BKN016 OVC027 12/12 A2996 RMK AO2 P0002 T01170117
KFSM 240808Z AUTO 03004KT 5SM -RA BR SCT006 BKN010 OVC027 12/12 A2997 RMK AO2 P0001 T01170117
KFSM 240753Z AUTO 04006KT 3SM RA BR OVC006 12/12 A2997 RMK AO2 SLP148 P0008 T01220117
KFSM 240653Z AUTO 07008KT 10SM -RA OVC005 12/12 A2997 RMK AO2 LTG DSNT N AND NW RAB14 SLP147 P0001 T01220122
KFSM 240644Z AUTO 06006KT 10SM VCTS -RA OVC005 12/12 A2998 RMK AO2 LTG DSNT W AND NW RAB14 P0001 T01220117
KFSM 240553Z AUTO 11006KT 10SM OVC007 13/12 A2998 RMK AO2 LTG DSNT W AND NW SLP149 60004 T01280122 10128 20106 401280078 57027
KFSM 240453Z AUTO 09007KT 10SM OVC007 12/12 A3000 RMK AO2 LTG DSNT W-N SLP157 T01220122
KFSM 240428Z 08007KT 10SM BKN008 OVC015 12/12 A3002 RMK AO2 LTG DSNT NW T01220117
KFSM 240406Z 09008KT 10SM SCT009 OVC015 12/12 A3003 RMK AO2 T01220117
KFSM 240353Z 09007KT 10SM BKN008 OVC015 12/12 A3004 RMK AO2 SLP172 T01170117
KFSM 240314Z 07008KT 10SM OVC007 12/11 A3005 RMK AO2 T01170111
KFSM 240253Z 06008KT 10SM OVC004 12/11 A3006 RMK AO2 RAE0155 SLP178 P0000 60004 T01170111 56024
KFSM 240153Z 07008KT 10SM -RA OVC004 11/11 A3007 RMK AO2 SLP183 P0001 T01110106
KFSM 240053Z 09012KT 10SM -RA BKN004 OVC034 11/11 A3009 RMK AO2 SLP189 P0003 T01060106
KFSM 232353Z 07008KT 4SM -RA BR OVC004 11/10 A3013 RMK AO2 SLP203 P0014 60083 T01060100 10106 20089 58011
KFSM 232320Z 09007KT 3SM RA BR BKN004 OVC042 11/10 A3014 RMK AO2 P0009 T01060100
KFSM 232303Z 08009KT 3SM +RA BR OVC005 10/10 A3014 RMK AO2 P0003 T01000100
KFSM 232253Z 10006KT 2 1/2SM +RA BR OVC005 10/10 A3015 RMK AO2 SLP209 P0016 T01000100
KFSM 232153Z 09006KT 4SM RA BR BKN005 OVC039 10/09 A3015 RMK AO2 SLP209 P0014 T01000094
KFSM 232053Z 07009KT 6SM -RA BR BKN005 BKN042 OVC060 09/09 A3016 RMK AO2 SLP214 P0017 60039 T00940094 56020
KFSM 232049Z 08009KT 6SM -RA BR BKN005 BKN035 OVC060 09/09 A3017 RMK AO2 P0017
KFSM 232042Z 08012KT 4SM RA BR SCT005 BKN039 OVC075 09/09 A3016 RMK AO2 PRESFR P0016 T00940089
KFSM 232011Z 07011KT 3SM RA BR BKN005 OVC031 09/09 A3018 RMK AO2 P0005 T00940089
KFSM 232001Z VRB04KT 4SM -RA BR BKN004 OVC033 09/09 A3023 RMK AO2 LTG DSNT S P0002 T00940089
KFSM 231953Z 06012KT 2 1/2SM +RA BR BKN004 BKN036 OVC060 09/09 A3018 RMK AO2 LTG DSNT S TSB16E31 SLP221 P0011 T00890089
KFSM 231937Z 06004KT 4SM -RA BR BKN004 BKN014 OVC060 09/09 A3023 RMK AO2 LTG DSNT E AND SE TSB16E31 P0007 T00890089
KFSM 231920Z 07008KT 3SM TSRA BR BKN004 BKN050 OVC100 09/08 A3022 RMK AO2 LTG DSNT E-S TSB16 P0004 T00890083
KFSM 231853Z 05010KT 4SM -RA BR FEW008 BKN070 OVC085 09/08 A3022 RMK AO2 LTG DSNT SE PRESFR SLP234 P0011 T00890083
KFSM 231821Z 03005KT 4SM -RA BR FEW006 BKN065 OVC085 09/08 A3027 RMK AO2 LTG DSNT SW P0005 T00890083
KFSM 231753Z 08006KT 8SM -RA SCT005 OVC017 09/08 A3026 RMK AO2 SLP247 P0002 60002 T00890083 10089 20078 58003
KFSM 231706Z 08009KT 10SM -RA OVC005 09/08 A3026 RMK AO2 PRESFR P0000 T00890078
KFSM 231653Z 35004KT 10SM -RA OVC004 09/08 A3027 RMK AO2 RAB06 SLP252 P0000 T00890083
KFSM 231553Z VRB03KT 9SM OVC004 08/08 A3028 RMK AO2 SLP253 T00830078
KFSM 231453Z 00000KT 10SM OVC004 08/08 A3027 RMK AO2 SLP250 T00830078 56002
KFSM 231353Z 00000KT 10SM OVC004 08/08 A3027 RMK AO2 SLP251 T00780078
KFSM 231328Z 00000KT 10SM BKN004 OVC010 08/07 A3027 RMK AO2 T00780072
KFSM 231308Z 30003KT 10SM SCT004 OVC010 08/07 A3027 RMK AO2 T00780072
KFSM 231253Z 34003KT 6SM BR BKN004 OVC010 08/08 A3027 RMK AO2 SLP250 T00780078
KFSM 231153Z 27006KT 3SM BR OVC003 08/08 A3027 RMK AO2 SLP253 70049 T00780078 10083 20078 53012
KFSM 231145Z 27006KT 3SM BR OVC003 08/08 A3027 RMK AO2 T00780078
KFSM 231132Z 26006KT 2 1/2SM BR OVC003 08/08 A3027 RMK AO2 T00780078
KFSM 231102Z AUTO 26006KT 3SM BR OVC004 08/08 A3026 RMK AO2 T00780078
KFSM 231053Z AUTO 25004KT 4SM BR OVC005 08/08 A3025 RMK AO2 SLP245 T00780078
KFSM 231033Z AUTO 24004KT 3SM BR OVC005 08/08 A3025 RMK AO2 T00780078
KFSM 231011Z AUTO 00000KT 2SM BR OVC005 08/08 A3025 RMK AO2 T00780078